Time,TemperatureF,DewpointF,PressureIn,WindDirection,WindDirectionDegrees,WindSpeedMPH,WindSpeedGustMPH,Humidity,HourlyPrecipIn,Conditions,Clouds,dailyrainin,SoftwareType,DateUTC
2013-01-12 00:02:00,28.0,26.0,-100.00,WNW,293,1.0,2.0,93,-99.99,,,-99.99,,2013-01-12 08:02:00,
2013-01-12 00:11:00,28.0,27.0,-100.00,WSW,242,1.0,4.0,94,-99.99,,,-99.99,,2013-01-12 08:11:00,
2013-01-12 00:22:00,29.0,28.0,-100.00,WNW,292,4.0,8.0,95,-99.99,,,-99.99,,2013-01-12 08:22:00,
2013-01-12 00:32:00,28.0,27.0,-100.00,NNW,331,4.0,7.0,96,-99.99,,,-99.99,,2013-01-12 08:32:00,
2013-01-12 00:42:00,28.0,28.0,-100.00,NNW,330,3.0,6.0,98,-99.99,,,-99.99,,2013-01-12 08:42:00,
2013-01-12 00:52:00,28.0,28.0,-100.00,NNW,334,1.0,2.0,99,-99.99,,,-99.99,,2013-01-12 08:52:00,
2013-01-12 01:02:00,28.0,28.0,-100.00,NNW,334,1.0,2.0,99,-99.99,,,-99.99,,2013-01-12 09:02:00,
2013-01-12 01:12:00,29.0,29.0,-100.00,WNW,290,2.0,8.0,98,-99.99,,,-99.99,,2013-01-12 09:12:00,
2013-01-12 01:22:00,29.0,28.0,-100.00,WNW,282,4.0,10.0,97,-99.99,,,-99.99,,2013-01-12 09:22:00,
2013-01-12 01:32:00,29.0,28.0,-100.00,NW,311,4.0,7.0,96,-99.99,,,-99.99,,2013-01-12 09:32:00,
2013-01-12 01:42:00,28.0,27.0,-100.00,WNW,299,4.0,8.0,97,-99.99,,,-99.99,,2013-01-12 09:42:00,
2013-01-12 01:52:00,28.0,27.0,-100.00,WNW,299,4.0,8.0,97,-99.99,,,-99.99,,2013-01-12 09:52:00,
2013-01-12 02:02:00,28.0,28.0,-100.00,WNW,301,4.0,9.0,99,-99.99,,,-99.99,,2013-01-12 10:02:00,
2013-01-12 02:11:00,28.0,28.0,-100.00,NW,307,5.0,11.0,99,-99.99,,,-99.99,,2013-01-12 10:11:00,
2013-01-12 02:22:00,28.0,28.0,-100.00,NW,316,4.0,8.0,99,-99.99,,,-99.99,,2013-01-12 10:22:00,
2013-01-12 02:32:00,27.0,27.0,-100.00,NW,326,3.0,6.0,99,-99.99,,,-99.99,,2013-01-12 10:32:00,
2013-01-12 02:42:00,28.0,28.0,-100.00,NNW,329,3.0,5.0,99,-99.99,,,-99.99,,2013-01-12 10:42:00,
2013-01-12 02:52:00,28.0,28.0,-100.00,NW,322,3.0,6.0,99,-99.99,,,-99.99,,2013-01-12 10:52:00,
2013-01-12 03:02:00,27.0,27.0,-100.00,NW,326,3.0,8.0,99,-99.99,,,-99.99,,2013-01-12 11:02:00,
2013-01-12 03:12:00,27.0,27.0,-100.00,NNW,347,2.0,6.0,99,-99.99,,,-99.99,,2013-01-12 11:12:00,
2013-01-12 03:22:00,27.0,27.0,-100.00,North,354,1.0,4.0,99,-99.99,,,-99.99,,2013-01-12 11:22:00,
2013-01-12 03:32:00,27.0,27.0,-100.00,WNW,293,1.0,3.0,98,-99.99,,,-99.99,,2013-01-12 11:32:00,
2013-01-12 03:42:00,26.0,26.0,-100.00,West,262,1.0,2.0,98,-99.99,,,-99.99,,2013-01-12 11:42:00,
2013-01-12 03:52:00,26.0,26.0,-100.00,WNW,296,1.0,2.0,98,-99.99,,,-99.99,,2013-01-12 11:52:00,
2013-01-12 04:02:00,25.0,25.0,-100.00,NNW,343,1.0,2.0,99,-99.99,,,-99.99,,2013-01-12 12:02:00,
2013-01-12 04:12:00,26.0,26.0,-100.00,NNE,27,1.0,2.0,99,-99.99,,,-99.99,,2013-01-12 12:12:00,
2013-01-12 04:22:00,25.0,25.0,-100.00,West,272,2.0,3.0,98,-99.99,,,-99.99,,2013-01-12 12:22:00,
2013-01-12 04:32:00,25.0,25.0,-100.00,NW,305,3.0,4.0,98,-99.99,,,-99.99,,2013-01-12 12:32:00,
2013-01-12 04:42:00,25.0,25.0,-100.00,NW,305,3.0,4.0,98,-99.99,,,-99.99,,2013-01-12 12:42:00,
2013-01-12 04:52:00,24.0,24.0,-100.00,NW,322,2.0,3.0,98,-99.99,,,-99.99,,2013-01-12 12:52:00,
2013-01-12 05:02:00,24.0,24.0,-100.00,WNW,291,3.0,5.0,98,-99.99,,,-99.99,,2013-01-12 13:02:00,
2013-01-12 05:12:00,25.0,24.0,-100.00,NW,304,3.0,4.0,96,-99.99,,,-99.99,,2013-01-12 13:12:00,
2013-01-12 05:22:00,24.0,23.0,-100.00,WNW,303,3.0,4.0,95,-99.99,,,-99.99,,2013-01-12 13:22:00,
2013-01-12 05:32:00,24.0,22.0,-100.00,NNW,328,3.0,3.0,93,-99.99,,,-99.99,,2013-01-12 13:32:00,
2013-01-12 05:42:00,24.0,22.0,-100.00,NNW,328,3.0,3.0,93,-99.99,,,-99.99,,2013-01-12 13:42:00,
2013-01-12 05:52:00,24.0,22.0,-100.00,NNW,329,2.0,3.0,92,-99.99,,,-99.99,,2013-01-12 13:52:00,
2013-01-12 06:02:00,24.0,22.0,-100.00,NNW,329,2.0,3.0,92,-99.99,,,-99.99,,2013-01-12 14:02:00,
2013-01-12 06:12:00,24.0,22.0,-100.00,WNW,301,3.0,5.0,90,-99.99,,,-99.99,,2013-01-12 14:12:00,
2013-01-12 06:22:00,24.0,20.0,-100.00,NW,304,3.0,5.0,84,-99.99,,,-99.99,,2013-01-12 14:22:00,
2013-01-12 06:32:00,23.0,19.0,-100.00,NW,305,3.0,6.0,86,-99.99,,,-99.99,,2013-01-12 14:32:00,
2013-01-12 06:43:00,23.0,18.0,-100.00,NW,312,4.0,5.0,82,-99.99,,,-99.99,,2013-01-12 14:43:00,
2013-01-12 06:53:00,23.0,17.0,-100.00,WNW,290,4.0,6.0,79,-99.99,,,-99.99,,2013-01-12 14:53:00,
2013-01-12 07:03:00,23.0,17.0,-100.00,WNW,290,4.0,6.0,79,-99.99,,,-99.99,,2013-01-12 15:03:00,
2013-01-12 07:12:00,24.0,17.0,-100.00,NW,305,3.0,5.0,74,-99.99,,,-99.99,,2013-01-12 15:12:00,
2013-01-12 07:22:00,24.0,16.0,-100.00,NW,312,2.0,4.0,71,-99.99,,,-99.99,,2013-01-12 15:22:00,
2013-01-12 07:33:00,25.0,17.0,-100.00,NW,319,3.0,4.0,70,-99.99,,,-99.99,,2013-01-12 15:33:00,
2013-01-12 07:42:00,25.0,17.0,-100.00,NW,319,3.0,4.0,70,-99.99,,,-99.99,,2013-01-12 15:42:00,
2013-01-12 07:52:00,25.0,16.0,-100.00,NW,307,3.0,5.0,68,-99.99,,,-99.99,,2013-01-12 15:52:00,
2013-01-12 08:02:00,26.0,17.0,-100.00,NW,306,3.0,5.0,68,-99.99,,,-99.99,,2013-01-12 16:02:00,
2013-01-12 08:12:00,28.0,18.0,-100.00,West,271,3.0,5.0,65,-99.99,,,-99.99,,2013-01-12 16:12:00,
2013-01-12 08:22:00,29.0,18.0,-100.00,NW,326,1.0,3.0,63,-99.99,,,-99.99,,2013-01-12 16:22:00,
2013-01-12 08:32:00,30.0,18.0,-100.00,NW,308,2.0,4.0,61,-99.99,,,-99.99,,2013-01-12 16:32:00,
2013-01-12 08:42:00,31.0,18.0,-100.00,NW,324,2.0,4.0,58,-99.99,,,-99.99,,2013-01-12 16:42:00,
2013-01-12 08:52:00,30.0,18.0,-100.00,NW,311,3.0,5.0,60,-99.99,,,-99.99,,2013-01-12 16:52:00,
2013-01-12 09:02:00,31.0,18.0,-100.00,NNW,327,2.0,3.0,58,-99.99,,,-99.99,,2013-01-12 17:02:00,
2013-01-12 09:12:00,31.0,17.0,-100.00,NW,312,3.0,5.0,55,-99.99,,,-99.99,,2013-01-12 17:12:00,
2013-01-12 09:22:00,32.0,17.0,-100.00,WNW,296,1.0,4.0,53,-99.99,,,-99.99,,2013-01-12 17:22:00,
2013-01-12 09:32:00,34.0,17.0,-100.00,SE,137,2.0,6.0,50,-99.99,,,-99.99,,2013-01-12 17:32:00,
2013-01-12 09:42:00,34.0,17.0,-100.00,SE,137,2.0,6.0,50,-99.99,,,-99.99,,2013-01-12 17:42:00,
2013-01-12 09:53:00,35.0,16.0,-100.00,SSW,199,2.0,3.0,46,-99.99,,,-99.99,,2013-01-12 17:53:00,
2013-01-12 10:02:00,35.0,16.0,-100.00,SSW,199,2.0,3.0,46,-99.99,,,-99.99,,2013-01-12 18:02:00,
2013-01-12 10:12:00,35.0,10.0,-100.00,NNW,332,3.0,9.0,35,-99.99,,,-99.99,,2013-01-12 18:12:00,
2013-01-12 10:22:00,35.0,8.0,-100.00,NE,40,4.0,11.0,32,-99.99,,,-99.99,,2013-01-12 18:22:00,
2013-01-12 10:33:00,36.0,8.0,-100.00,SSE,149,2.0,7.0,30,-99.99,,,-99.99,,2013-01-12 18:33:00,
2013-01-12 10:42:00,37.0,8.0,-100.00,NE,49,3.0,9.0,29,-99.99,,,-99.99,,2013-01-12 18:42:00,
2013-01-12 10:52:00,37.0,6.0,-100.00,ENE,71,3.0,8.0,27,-99.99,,,-99.99,,2013-01-12 18:52:00,
2013-01-12 11:02:00,37.0,6.0,-100.00,ESE,116,2.0,10.0,27,-99.99,,,-99.99,,2013-01-12 19:02:00,
2013-01-12 11:12:00,38.0,6.0,-100.00,NW,310,4.0,8.0,26,-99.99,,,-99.99,,2013-01-12 19:12:00,
2013-01-12 11:22:00,38.0,4.0,-100.00,SW,231,2.0,7.0,24,-99.99,,,-99.99,,2013-01-12 19:22:00,
2013-01-12 11:32:00,38.0,4.0,-100.00,West,262,4.0,8.0,24,-99.99,,,-99.99,,2013-01-12 19:32:00,
2013-01-12 11:42:00,38.0,6.0,-100.00,West,274,5.0,9.0,26,-99.99,,,-99.99,,2013-01-12 19:42:00,
2013-01-12 11:52:00,38.0,6.0,-100.00,WNW,292,5.0,12.0,26,-99.99,,,-99.99,,2013-01-12 19:52:00,
2013-01-12 12:02:00,39.0,6.0,-100.00,WSW,239,4.0,10.0,25,-99.99,,,-99.99,,2013-01-12 20:02:00,
2013-01-12 12:12:00,38.0,4.0,-100.00,WNW,290,5.0,11.0,23,-99.99,,,-99.99,,2013-01-12 20:12:00,
2013-01-12 12:22:00,38.0,3.0,-100.00,WNW,283,3.0,9.0,22,-99.99,,,-99.99,,2013-01-12 20:22:00,
2013-01-12 12:32:00,39.0,3.0,-100.00,WNW,296,4.0,10.0,22,-99.99,,,-99.99,,2013-01-12 20:32:00,
2013-01-12 12:42:00,39.0,3.0,-100.00,West,272,6.0,11.0,22,-99.99,,,-99.99,,2013-01-12 20:42:00,
2013-01-12 12:53:00,38.0,3.0,-100.00,NNE,17,3.0,7.0,22,-99.99,,,-99.99,,2013-01-12 20:53:00,
2013-01-12 13:02:00,40.0,5.0,-100.00,North,351,3.0,9.0,23,-99.99,,,-99.99,,2013-01-12 21:02:00,
2013-01-12 13:12:00,40.0,6.0,-100.00,NNW,333,4.0,10.0,24,-99.99,,,-99.99,,2013-01-12 21:12:00,
2013-01-12 13:22:00,41.0,7.0,-100.00,ENE,65,3.0,7.0,24,-99.99,,,-99.99,,2013-01-12 21:22:00,
2013-01-12 13:32:00,39.0,8.0,-100.00,South,169,2.0,9.0,27,-99.99,,,-99.99,,2013-01-12 21:32:00,
2013-01-12 13:42:00,40.0,10.0,-100.00,WSW,243,4.0,12.0,28,-99.99,,,-99.99,,2013-01-12 21:42:00,
2013-01-12 13:52:00,39.0,9.0,-100.00,SSW,200,4.0,8.0,28,-99.99,,,-99.99,,2013-01-12 21:52:00,
2013-01-12 14:02:00,40.0,10.0,-100.00,SE,145,5.0,16.0,29,-99.99,,,-99.99,,2013-01-12 22:02:00,
2013-01-12 14:12:00,41.0,10.0,-100.00,SSE,157,4.0,10.0,28,-99.99,,,-99.99,,2013-01-12 22:12:00,
2013-01-12 14:22:00,40.0,10.0,-100.00,SSE,151,4.0,8.0,29,-99.99,,,-99.99,,2013-01-12 22:22:00,
2013-01-12 14:32:00,38.0,10.0,-100.00,SE,130,6.0,12.0,31,-99.99,,,-99.99,,2013-01-12 22:32:00,
2013-01-12 14:42:00,38.0,10.0,-100.00,SE,130,7.0,12.0,31,-99.99,,,-99.99,,2013-01-12 22:42:00,
2013-01-12 14:52:00,38.0,10.0,-100.00,ENE,70,3.0,8.0,31,-99.99,,,-99.99,,2013-01-12 22:52:00,
2013-01-12 15:02:00,38.0,10.0,-100.00,SE,144,6.0,11.0,31,-99.99,,,-99.99,,2013-01-12 23:02:00,
2013-01-12 15:12:00,38.0,11.0,-100.00,SSE,154,4.0,9.0,32,-99.99,,,-99.99,,2013-01-12 23:12:00,
2013-01-12 15:22:00,38.0,11.0,-100.00,SSE,154,4.0,9.0,32,-99.99,,,-99.99,,2013-01-12 23:22:00,
2013-01-12 15:32:00,40.0,12.0,-100.00,West,263,4.0,9.0,31,-99.99,,,-99.99,,2013-01-12 23:32:00,
2013-01-12 15:42:00,40.0,12.0,-100.00,West,263,4.0,9.0,31,-99.99,,,-99.99,,2013-01-12 23:42:00,
2013-01-12 15:53:00,39.0,13.0,-100.00,West,267,6.0,11.0,34,-99.99,,,-99.99,,2013-01-12 23:53:00,
2013-01-12 16:02:00,38.0,13.0,-100.00,West,275,5.0,9.0,35,-99.99,,,-99.99,,2013-01-13 00:02:00,
2013-01-12 16:12:00,37.0,12.0,-100.00,West,259,5.0,9.0,35,-99.99,,,-99.99,,2013-01-13 00:12:00,
2013-01-12 16:22:00,37.0,13.0,-100.00,WSW,249,1.0,6.0,36,-99.99,,,-99.99,,2013-01-13 00:22:00,
2013-01-12 16:32:00,36.0,15.0,-100.00,West,262,5.0,8.0,41,-99.99,,,-99.99,,2013-01-13 00:32:00,
2013-01-12 16:42:00,36.0,15.0,-100.00,West,262,5.0,8.0,41,-99.99,,,-99.99,,2013-01-13 00:42:00,
2013-01-12 16:52:00,36.0,15.0,-100.00,WSW,244,2.0,4.0,42,-99.99,,,-99.99,,2013-01-13 00:52:00,
2013-01-12 17:02:00,36.0,15.0,-100.00,WSW,244,2.0,4.0,42,-99.99,,,-99.99,,2013-01-13 01:02:00,
2013-01-12 17:12:00,35.0,16.0,-100.00,West,271,4.0,7.0,46,-99.99,,,-99.99,,2013-01-13 01:12:00,
2013-01-12 17:22:00,34.0,16.0,-100.00,WSW,255,5.0,9.0,47,-99.99,,,-99.99,,2013-01-13 01:22:00,
2013-01-12 17:32:00,33.0,16.0,-100.00,West,266,4.0,7.0,49,-99.99,,,-99.99,,2013-01-13 01:32:00,
2013-01-12 17:42:00,33.0,17.0,-100.00,West,269,4.0,9.0,51,-99.99,,,-99.99,,2013-01-13 01:42:00,
2013-01-12 17:52:00,32.0,18.0,-100.00,West,264,6.0,9.0,56,-99.99,,,-99.99,,2013-01-13 01:52:00,
2013-01-12 18:02:00,32.0,18.0,-100.00,West,264,6.0,9.0,56,-99.99,,,-99.99,,2013-01-13 02:02:00,
2013-01-12 18:12:00,31.0,18.0,-100.00,West,280,4.0,6.0,58,-99.99,,,-99.99,,2013-01-13 02:12:00,
2013-01-12 18:22:00,30.0,18.0,-100.00,NW,313,3.0,5.0,60,-99.99,,,-99.99,,2013-01-13 02:22:00,
2013-01-12 18:32:00,30.0,18.0,-100.00,WNW,299,3.0,5.0,61,-99.99,,,-99.99,,2013-01-13 02:32:00,
2013-01-12 18:42:00,30.0,19.0,-100.00,WNW,299,4.0,6.0,62,-99.99,,,-99.99,,2013-01-13 02:42:00,
2013-01-12 18:52:00,30.0,19.0,-100.00,NW,311,3.0,4.0,62,-99.99,,,-99.99,,2013-01-13 02:52:00,
2013-01-12 19:02:00,29.0,18.0,-100.00,NW,307,3.0,4.0,63,-99.99,,,-99.99,,2013-01-13 03:02:00,
2013-01-12 19:12:00,29.0,18.0,-100.00,NW,318,2.0,3.0,64,-99.99,,,-99.99,,2013-01-13 03:12:00,
2013-01-12 19:22:00,29.0,19.0,-100.00,NW,323,2.0,3.0,65,-99.99,,,-99.99,,2013-01-13 03:22:00,
2013-01-12 19:32:00,29.0,19.0,-100.00,NNW,337,2.0,3.0,65,-99.99,,,-99.99,,2013-01-13 03:32:00,
2013-01-12 19:42:00,29.0,19.0,-100.00,NNW,337,2.0,3.0,65,-99.99,,,-99.99,,2013-01-13 03:42:00,
2013-01-12 19:52:00,29.0,19.0,-100.00,NNW,327,2.0,3.0,67,-99.99,,,-99.99,,2013-01-13 03:52:00,
2013-01-12 20:02:00,29.0,19.0,-100.00,NNW,327,2.0,3.0,67,-99.99,,,-99.99,,2013-01-13 04:02:00,
2013-01-12 20:12:00,29.0,20.0,-100.00,NW,309,2.0,2.0,68,-99.99,,,-99.99,,2013-01-13 04:12:00,
2013-01-12 20:22:00,29.0,20.0,-100.00,WNW,302,2.0,3.0,69,-99.99,,,-99.99,,2013-01-13 04:22:00,
2013-01-12 20:32:00,29.0,21.0,-100.00,NW,326,2.0,3.0,71,-99.99,,,-99.99,,2013-01-13 04:32:00,
2013-01-12 20:42:00,28.0,20.0,-100.00,NNW,329,3.0,4.0,72,-99.99,,,-99.99,,2013-01-13 04:42:00,
2013-01-12 20:52:00,27.0,20.0,-100.00,NNW,327,3.0,4.0,74,-99.99,,,-99.99,,2013-01-13 04:52:00,
2013-01-12 21:03:00,27.0,20.0,-100.00,NW,324,2.0,3.0,75,-99.99,,,-99.99,,2013-01-13 05:03:00,
2013-01-12 21:12:00,27.0,20.0,-100.00,NNW,327,1.0,2.0,73,-99.99,,,-99.99,,2013-01-13 05:12:00,
2013-01-12 21:22:00,27.0,20.0,-100.00,SSE,159,0.0,1.0,74,-99.99,,,-99.99,,2013-01-13 05:22:00,
2013-01-12 21:32:00,27.0,19.0,-100.00,ESE,116,1.0,3.0,72,-99.99,,,-99.99,,2013-01-13 05:32:00,
2013-01-12 21:42:00,27.0,19.0,-100.00,ESE,116,1.0,3.0,72,-99.99,,,-99.99,,2013-01-13 05:42:00,
2013-01-12 21:52:00,27.0,19.0,-100.00,SE,131,2.0,4.0,70,-99.99,,,-99.99,,2013-01-13 05:52:00,
2013-01-12 22:02:00,27.0,18.0,-100.00,East,101,1.0,4.0,69,-99.99,,,-99.99,,2013-01-13 06:02:00,
2013-01-12 22:12:00,27.0,18.0,-100.00,ESE,102,0.0,2.0,69,-99.99,,,-99.99,,2013-01-13 06:12:00,
2013-01-12 22:22:00,27.0,19.0,-100.00,NNE,17,1.0,2.0,70,-99.99,,,-99.99,,2013-01-13 06:22:00,
2013-01-12 22:32:00,27.0,19.0,-100.00,SW,235,0.0,1.0,70,-99.99,,,-99.99,,2013-01-13 06:32:00,
2013-01-12 22:42:00,27.0,18.0,-100.00,NNW,340,2.0,3.0,69,-99.99,,,-99.99,,2013-01-13 06:42:00,
2013-01-12 22:52:00,26.0,18.0,-100.00,NW,324,3.0,4.0,71,-99.99,,,-99.99,,2013-01-13 06:52:00,
2013-01-12 23:02:00,26.0,19.0,-100.00,NW,308,2.0,4.0,73,-99.99,,,-99.99,,2013-01-13 07:02:00,
2013-01-12 23:12:00,26.0,18.0,-100.00,NW,321,2.0,3.0,72,-99.99,,,-99.99,,2013-01-13 07:12:00,
2013-01-12 23:22:00,26.0,18.0,-100.00,NNW,346,1.0,2.0,70,-99.99,,,-99.99,,2013-01-13 07:22:00,
2013-01-12 23:32:00,27.0,17.0,-100.00,SSE,155,1.0,2.0,65,-99.99,,,-99.99,,2013-01-13 07:32:00,
2013-01-12 23:42:00,27.0,17.0,-100.00,SSE,155,1.0,2.0,65,-99.99,,,-99.99,,2013-01-13 07:42:00,
2013-01-12 23:52:00,27.0,17.0,-100.00,SE,146,1.0,2.0,65,-99.99,,,-99.99,,2013-01-13 07:52:00,